sensor_id;sensor_type;location;lat;lon;timestamp;temperature;humidity
31379;DHT22;61664;48.112;11.662;2023-07-22T00:01:25;18.70;93.30
31379;DHT22;61664;48.112;11.662;2023-07-22T00:03:52;18.70;93.10
31379;DHT22;61664;48.112;11.662;2023-07-22T00:06:19;18.70;93.10
31379;DHT22;61664;48.112;11.662;2023-07-22T00:08:46;18.70;93.10
31379;DHT22;61664;48.112;11.662;2023-07-22T00:11:13;18.60;93.20
31379;DHT22;61664;48.112;11.662;2023-07-22T00:13:40;18.60;93.30
31379;DHT22;61664;48.112;11.662;2023-07-22T00:16:07;18.60;93.20
31379;DHT22;61664;48.112;11.662;2023-07-22T00:18:34;18.60;93.30
31379;DHT22;61664;48.112;11.662;2023-07-22T00:21:01;18.60;93.30
31379;DHT22;61664;48.112;11.662;2023-07-22T00:23:28;18.60;93.30
31379;DHT22;61664;48.112;11.662;2023-07-22T00:25:56;18.60;93.30
31379;DHT22;61664;48.112;11.662;2023-07-22T00:28:23;18.50;93.30
31379;DHT22;61664;48.112;11.662;2023-07-22T00:30:50;18.50;93.30
31379;DHT22;61664;48.112;11.662;2023-07-22T00:33:20;18.50;93.30
31379;DHT22;61664;48.112;11.662;2023-07-22T00:35:48;18.50;93.20
31379;DHT22;61664;48.112;11.662;2023-07-22T00:38:18;18.50;93.10
31379;DHT22;61664;48.112;11.662;2023-07-22T00:40:46;18.40;93.00
31379;DHT22;61664;48.112;11.662;2023-07-22T00:43:13;18.40;92.90
31379;DHT22;61664;48.112;11.662;2023-07-22T00:45:40;18.40;92.90
31379;DHT22;61664;48.112;11.662;2023-07-22T00:48:08;18.40;92.70
31379;DHT22;61664;48.112;11.662;2023-07-22T00:50:36;18.40;92.60
31379;DHT22;61664;48.112;11.662;2023-07-22T00:53:05;18.40;92.60
31379;DHT22;61664;48.112;11.662;2023-07-22T00:55:33;18.30;92.70
31379;DHT22;61664;48.112;11.662;2023-07-22T00:58:02;18.30;92.90
31379;DHT22;61664;48.112;11.662;2023-07-22T01:00:29;18.30;92.60
31379;DHT22;61664;48.112;11.662;2023-07-22T01:02:56;18.20;92.80
31379;DHT22;61664;48.112;11.662;2023-07-22T01:05:23;18.20;92.70
31379;DHT22;61664;48.112;11.662;2023-07-22T01:07:52;18.20;92.80
31379;DHT22;61664;48.112;11.662;2023-07-22T01:10:20;18.20;92.90
31379;DHT22;61664;48.112;11.662;2023-07-22T01:12:48;18.20;93.00
31379;DHT22;61664;48.112;11.662;2023-07-22T01:15:15;18.20;93.10
31379;DHT22;61664;48.112;11.662;2023-07-22T01:17:42;18.20;93.10
31379;DHT22;61664;48.112;11.662;2023-07-22T01:20:11;18.10;93.10
31379;DHT22;61664;48.112;11.662;2023-07-22T01:22:40;18.10;93.10
31379;DHT22;61664;48.112;11.662;2023-07-22T01:25:09;18.10;93.20
31379;DHT22;61664;48.112;11.662;2023-07-22T01:27:36;18.10;93.00
31379;DHT22;61664;48.112;11.662;2023-07-22T01:30:04;18.10;93.00
31379;DHT22;61664;48.112;11.662;2023-07-22T01:32:33;18.20;93.00
31379;DHT22;61664;48.112;11.662;2023-07-22T01:35:00;18.20;92.90
31379;DHT22;61664;48.112;11.662;2023-07-22T01:37:27;18.10;92.80
31379;DHT22;61664;48.112;11.662;2023-07-22T01:39:54;18.10;92.50
31379;DHT22;61664;48.112;11.662;2023-07-22T01:42:23;18.10;92.40
31379;DHT22;61664;48.112;11.662;2023-07-22T01:44:50;18.10;92.30
31379;DHT22;61664;48.112;11.662;2023-07-22T01:47:17;18.10;92.50
31379;DHT22;61664;48.112;11.662;2023-07-22T01:49:44;18.00;92.70
31379;DHT22;61664;48.112;11.662;2023-07-22T01:52:11;18.00;92.80
31379;DHT22;61664;48.112;11.662;2023-07-22T01:54:38;18.00;92.90
31379;DHT22;61664;48.112;11.662;2023-07-22T01:57:05;18.00;93.10
31379;DHT22;61664;48.112;11.662;2023-07-22T01:59:32;18.00;93.30
31379;DHT22;61664;48.112;11.662;2023-07-22T02:01:59;18.00;93.50
31379;DHT22;61664;48.112;11.662;2023-07-22T02:04:26;18.10;93.90
31379;DHT22;61664;48.112;11.662;2023-07-22T02:06:53;18.10;94.10
31379;DHT22;61664;48.112;11.662;2023-07-22T02:09:20;18.20;94.10
31379;DHT22;61664;48.112;11.662;2023-07-22T02:11:47;18.20;94.00
31379;DHT22;61664;48.112;11.662;2023-07-22T02:14:14;18.20;94.00
31379;DHT22;61664;48.112;11.662;2023-07-22T02:16:41;18.20;94.00
31379;DHT22;61664;48.112;11.662;2023-07-22T02:19:08;18.20;93.90
31379;DHT22;61664;48.112;11.662;2023-07-22T02:21:35;18.20;93.90
31379;DHT22;61664;48.112;11.662;2023-07-22T02:24:02;18.30;93.90
31379;DHT22;61664;48.112;11.662;2023-07-22T02:26:29;18.30;93.70
31379;DHT22;61664;48.112;11.662;2023-07-22T02:28:56;18.30;93.50
31379;DHT22;61664;48.112;11.662;2023-07-22T02:31:23;18.30;93.40
31379;DHT22;61664;48.112;11.662;2023-07-22T02:33:51;18.30;93.20
31379;DHT22;61664;48.112;11.662;2023-07-22T02:36:17;18.30;93.10
31379;DHT22;61664;48.112;11.662;2023-07-22T02:38:44;18.20;93.20
31379;DHT22;61664;48.112;11.662;2023-07-22T02:41:11;18.20;92.90
31379;DHT22;61664;48.112;11.662;2023-07-22T02:43:38;18.20;92.90
31379;DHT22;61664;48.112;11.662;2023-07-22T02:46:07;18.20;93.00
31379;DHT22;61664;48.112;11.662;2023-07-22T02:48:35;18.20;93.20
31379;DHT22;61664;48.112;11.662;2023-07-22T02:51:09;18.20;93.20
31379;DHT22;61664;48.112;11.662;2023-07-22T02:53:37;18.20;93.00
31379;DHT22;61664;48.112;11.662;2023-07-22T02:56:05;18.20;93.60
31379;DHT22;61664;48.112;11.662;2023-07-22T02:58:37;18.20;93.80
31379;DHT22;61664;48.112;11.662;2023-07-22T03:01:05;18.30;93.60
31379;DHT22;61664;48.112;11.662;2023-07-22T03:03:32;18.20;93.50
31379;DHT22;61664;48.112;11.662;2023-07-22T03:06:00;18.20;93.40
31379;DHT22;61664;48.112;11.662;2023-07-22T03:08:28;18.20;93.40
31379;DHT22;61664;48.112;11.662;2023-07-22T03:10:55;18.20;93.10
31379;DHT22;61664;48.112;11.662;2023-07-22T03:13:22;18.20;93.00
31379;DHT22;61664;48.112;11.662;2023-07-22T03:15:48;18.20;92.90
31379;DHT22;61664;48.112;11.662;2023-07-22T03:18:16;18.20;92.80
31379;DHT22;61664;48.112;11.662;2023-07-22T03:20:42;18.20;92.70
31379;DHT22;61664;48.112;11.662;2023-07-22T03:23:09;18.20;92.60
31379;DHT22;61664;48.112;11.662;2023-07-22T03:25:36;18.20;92.30
31379;DHT22;61664;48.112;11.662;2023-07-22T03:28:05;18.20;92.10
31379;DHT22;61664;48.112;11.662;2023-07-22T03:30:33;18.10;92.10
31379;DHT22;61664;48.112;11.662;2023-07-22T03:33:00;18.10;92.00
31379;DHT22;61664;48.112;11.662;2023-07-22T03:35:27;18.10;92.20
31379;DHT22;61664;48.112;11.662;2023-07-22T03:37:56;18.10;92.30
31379;DHT22;61664;48.112;11.662;2023-07-22T03:40:22;18.10;92.40
31379;DHT22;61664;48.112;11.662;2023-07-22T03:42:55;18.10;92.50
31379;DHT22;61664;48.112;11.662;2023-07-22T03:45:24;18.00;92.50
31379;DHT22;61664;48.112;11.662;2023-07-22T03:47:59;18.10;92.60
31379;DHT22;61664;48.112;11.662;2023-07-22T03:50:27;18.00;92.60
31379;DHT22;61664;48.112;11.662;2023-07-22T03:52:55;18.10;92.80
31379;DHT22;61664;48.112;11.662;2023-07-22T03:55:22;18.10;92.80
31379;DHT22;61664;48.112;11.662;2023-07-22T03:57:49;18.00;92.70
31379;DHT22;61664;48.112;11.662;2023-07-22T04:00:16;18.00;92.60
31379;DHT22;61664;48.112;11.662;2023-07-22T04:02:43;18.00;92.50
31379;DHT22;61664;48.112;11.662;2023-07-22T04:05:11;18.00;92.40
31379;DHT22;61664;48.112;11.662;2023-07-22T04:07:38;18.00;92.30
31379;DHT22;61664;48.112;11.662;2023-07-22T04:10:06;18.00;92.30
31379;DHT22;61664;48.112;11.662;2023-07-22T04:12:33;18.00;92.30
31379;DHT22;61664;48.112;11.662;2023-07-22T04:15:00;17.90;92.30
31379;DHT22;61664;48.112;11.662;2023-07-22T04:17:28;17.90;92.50
31379;DHT22;61664;48.112;11.662;2023-07-22T04:19:55;18.00;92.40
31379;DHT22;61664;48.112;11.662;2023-07-22T04:22:22;18.00;92.30
31379;DHT22;61664;48.112;11.662;2023-07-22T04:24:49;18.00;92.30
31379;DHT22;61664;48.112;11.662;2023-07-22T04:27:16;18.00;92.30
31379;DHT22;61664;48.112;11.662;2023-07-22T04:29:43;18.00;92.30
31379;DHT22;61664;48.112;11.662;2023-07-22T04:32:10;18.00;92.30
31379;DHT22;61664;48.112;11.662;2023-07-22T04:34:37;18.00;92.50
31379;DHT22;61664;48.112;11.662;2023-07-22T04:37:04;18.00;92.60
31379;DHT22;61664;48.112;11.662;2023-07-22T04:39:32;18.00;92.70
31379;DHT22;61664;48.112;11.662;2023-07-22T04:41:59;18.00;93.00
31379;DHT22;61664;48.112;11.662;2023-07-22T04:44:26;18.00;93.20
31379;DHT22;61664;48.112;11.662;2023-07-22T04:46:53;18.10;93.30
31379;DHT22;61664;48.112;11.662;2023-07-22T04:49:21;18.10;93.60
31379;DHT22;61664;48.112;11.662;2023-07-22T04:51:48;18.20;93.70
31379;DHT22;61664;48.112;11.662;2023-07-22T04:54:17;18.20;93.70
31379;DHT22;61664;48.112;11.662;2023-07-22T04:56:44;18.20;93.60
31379;DHT22;61664;48.112;11.662;2023-07-22T04:59:11;18.30;93.40
31379;DHT22;61664;48.112;11.662;2023-07-22T05:01:40;18.30;93.20
31379;DHT22;61664;48.112;11.662;2023-07-22T05:04:07;18.30;93.20
31379;DHT22;61664;48.112;11.662;2023-07-22T05:06:34;18.30;93.20
31379;DHT22;61664;48.112;11.662;2023-07-22T05:09:02;18.30;93.30
31379;DHT22;61664;48.112;11.662;2023-07-22T05:11:30;18.40;93.60
31379;DHT22;61664;48.112;11.662;2023-07-22T05:13:57;18.40;93.50
31379;DHT22;61664;48.112;11.662;2023-07-22T05:16:24;18.40;93.60
31379;DHT22;61664;48.112;11.662;2023-07-22T05:18:52;18.50;93.70
31379;DHT22;61664;48.112;11.662;2023-07-22T05:21:19;18.50;93.50
31379;DHT22;61664;48.112;11.662;2023-07-22T05:23:46;18.60;93.50
31379;DHT22;61664;48.112;11.662;2023-07-22T05:26:13;18.60;93.50
31379;DHT22;61664;48.112;11.662;2023-07-22T05:28:39;18.70;93.40
31379;DHT22;61664;48.112;11.662;2023-07-22T05:31:06;18.70;93.70
31379;DHT22;61664;48.112;11.662;2023-07-22T05:33:34;18.70;93.70
31379;DHT22;61664;48.112;11.662;2023-07-22T05:36:01;18.80;93.50
31379;DHT22;61664;48.112;11.662;2023-07-22T05:38:28;18.80;93.40
31379;DHT22;61664;48.112;11.662;2023-07-22T05:40:55;18.80;93.60
31379;DHT22;61664;48.112;11.662;2023-07-22T05:43:22;18.90;93.80
31379;DHT22;61664;48.112;11.662;2023-07-22T05:45:49;18.90;94.00
31379;DHT22;61664;48.112;11.662;2023-07-22T05:48:16;19.00;94.40
31379;DHT22;61664;48.112;11.662;2023-07-22T05:50:43;19.00;94.20
31379;DHT22;61664;48.112;11.662;2023-07-22T05:53:12;19.10;93.90
31379;DHT22;61664;48.112;11.662;2023-07-22T05:55:39;19.20;93.90
31379;DHT22;61664;48.112;11.662;2023-07-22T05:58:06;19.20;94.00
31379;DHT22;61664;48.112;11.662;2023-07-22T06:00:33;19.30;94.10
31379;DHT22;61664;48.112;11.662;2023-07-22T06:03:00;19.30;94.30
31379;DHT22;61664;48.112;11.662;2023-07-22T06:05:28;19.40;94.50
31379;DHT22;61664;48.112;11.662;2023-07-22T06:07:55;19.50;94.60
31379;DHT22;61664;48.112;11.662;2023-07-22T06:10:23;19.60;94.60
31379;DHT22;61664;48.112;11.662;2023-07-22T06:12:51;19.70;94.60
31379;DHT22;61664;48.112;11.662;2023-07-22T06:15:18;19.70;94.40
31379;DHT22;61664;48.112;11.662;2023-07-22T06:17:46;19.80;94.20
31379;DHT22;61664;48.112;11.662;2023-07-22T06:20:13;19.90;93.80
31379;DHT22;61664;48.112;11.662;2023-07-22T06:22:40;19.90;93.30
31379;DHT22;61664;48.112;11.662;2023-07-22T06:25:08;20.00;92.70
31379;DHT22;61664;48.112;11.662;2023-07-22T06:27:35;20.00;92.30
31379;DHT22;61664;48.112;11.662;2023-07-22T06:30:02;20.00;91.80
31379;DHT22;61664;48.112;11.662;2023-07-22T06:32:30;20.00;91.40
31379;DHT22;61664;48.112;11.662;2023-07-22T06:34:57;20.00;91.30
31379;DHT22;61664;48.112;11.662;2023-07-22T06:37:25;20.00;91.30
31379;DHT22;61664;48.112;11.662;2023-07-22T06:39:52;20.00;91.50
31379;DHT22;61664;48.112;11.662;2023-07-22T06:42:20;20.10;92.00
31379;DHT22;61664;48.112;11.662;2023-07-22T06:44:47;20.10;92.40
31379;DHT22;61664;48.112;11.662;2023-07-22T06:47:14;20.20;93.10
31379;DHT22;61664;48.112;11.662;2023-07-22T06:49:41;20.40;93.20
31379;DHT22;61664;48.112;11.662;2023-07-22T06:52:13;20.40;92.60
31379;DHT22;61664;48.112;11.662;2023-07-22T06:54:40;20.50;91.90
31379;DHT22;61664;48.112;11.662;2023-07-22T06:57:08;20.60;91.30
31379;DHT22;61664;48.112;11.662;2023-07-22T06:59:35;20.70;91.20
31379;DHT22;61664;48.112;11.662;2023-07-22T07:02:03;20.70;91.40
31379;DHT22;61664;48.112;11.662;2023-07-22T07:04:31;20.80;90.90
31379;DHT22;61664;48.112;11.662;2023-07-22T07:06:59;20.90;90.50
31379;DHT22;61664;48.112;11.662;2023-07-22T07:09:26;20.90;90.20
31379;DHT22;61664;48.112;11.662;2023-07-22T07:11:53;21.00;90.00
31379;DHT22;61664;48.112;11.662;2023-07-22T07:14:23;21.10;90.00
31379;DHT22;61664;48.112;11.662;2023-07-22T07:16:51;21.10;90.10
31379;DHT22;61664;48.112;11.662;2023-07-22T07:19:18;21.20;89.40
31379;DHT22;61664;48.112;11.662;2023-07-22T07:21:45;21.30;88.80
31379;DHT22;61664;48.112;11.662;2023-07-22T07:24:12;21.30;88.40
31379;DHT22;61664;48.112;11.662;2023-07-22T07:26:39;21.40;87.70
31379;DHT22;61664;48.112;11.662;2023-07-22T07:29:06;21.50;86.90
31379;DHT22;61664;48.112;11.662;2023-07-22T07:31:33;21.50;86.30
31379;DHT22;61664;48.112;11.662;2023-07-22T07:34:00;21.60;86.20
31379;DHT22;61664;48.112;11.662;2023-07-22T07:36:27;21.60;85.40
31379;DHT22;61664;48.112;11.662;2023-07-22T07:38:55;21.70;84.70
31379;DHT22;61664;48.112;11.662;2023-07-22T07:41:22;21.70;84.00
31379;DHT22;61664;48.112;11.662;2023-07-22T07:43:49;21.70;82.70
31379;DHT22;61664;48.112;11.662;2023-07-22T07:48:48;21.70;81.30
31379;DHT22;61664;48.112;11.662;2023-07-22T07:51:18;21.70;82.00
31379;DHT22;61664;48.112;11.662;2023-07-22T07:53:47;21.70;81.00
31379;DHT22;61664;48.112;11.662;2023-07-22T07:56:15;21.70;80.30
31379;DHT22;61664;48.112;11.662;2023-07-22T07:58:45;21.70;79.60
31379;DHT22;61664;48.112;11.662;2023-07-22T08:01:13;21.70;80.00
31379;DHT22;61664;48.112;11.662;2023-07-22T08:03:41;21.80;81.10
31379;DHT22;61664;48.112;11.662;2023-07-22T08:06:10;21.80;80.40
31379;DHT22;61664;48.112;11.662;2023-07-22T08:08:38;21.80;80.40
31379;DHT22;61664;48.112;11.662;2023-07-22T08:11:11;21.80;79.90
31379;DHT22;61664;48.112;11.662;2023-07-22T08:13:43;21.90;76.30
31379;DHT22;61664;48.112;11.662;2023-07-22T08:16:12;22.00;79.30
31379;DHT22;61664;48.112;11.662;2023-07-22T08:18:40;22.00;79.30
31379;DHT22;61664;48.112;11.662;2023-07-22T08:21:07;22.00;79.30
31379;DHT22;61664;48.112;11.662;2023-07-22T08:23:36;22.10;79.40
31379;DHT22;61664;48.112;11.662;2023-07-22T08:26:04;22.10;79.70
31379;DHT22;61664;48.112;11.662;2023-07-22T08:28:34;22.20;79.60
31379;DHT22;61664;48.112;11.662;2023-07-22T08:31:01;22.30;79.50
31379;DHT22;61664;48.112;11.662;2023-07-22T08:33:29;22.40;79.20
31379;DHT22;61664;48.112;11.662;2023-07-22T08:36:08;22.40;79.70
31379;DHT22;61664;48.112;11.662;2023-07-22T08:38:36;22.50;79.80
31379;DHT22;61664;48.112;11.662;2023-07-22T08:41:03;22.60;79.30
31379;DHT22;61664;48.112;11.662;2023-07-22T08:43:30;22.70;78.60
31379;DHT22;61664;48.112;11.662;2023-07-22T08:46:00;22.80;78.30
31379;DHT22;61664;48.112;11.662;2023-07-22T08:48:30;22.90;76.10
31379;DHT22;61664;48.112;11.662;2023-07-22T08:51:06;23.10;80.10
31379;DHT22;61664;48.112;11.662;2023-07-22T08:53:45;23.30;82.20
31379;DHT22;61664;48.112;11.662;2023-07-22T08:56:33;23.50;85.60
31379;DHT22;61664;48.112;11.662;2023-07-22T08:59:01;23.90;91.10
31379;DHT22;61664;48.112;11.662;2023-07-22T09:01:28;24.40;91.90
31379;DHT22;61664;48.112;11.662;2023-07-22T09:03:56;24.80;91.70
31379;DHT22;61664;48.112;11.662;2023-07-22T09:06:25;25.30;91.00
31379;DHT22;61664;48.112;11.662;2023-07-22T09:08:53;25.70;91.70
31379;DHT22;61664;48.112;11.662;2023-07-22T09:11:20;26.20;90.00
31379;DHT22;61664;48.112;11.662;2023-07-22T09:13:48;26.60;86.50
31379;DHT22;61664;48.112;11.662;2023-07-22T09:16:16;27.00;87.30
31379;DHT22;61664;48.112;11.662;2023-07-22T09:18:44;27.40;86.60
31379;DHT22;61664;48.112;11.662;2023-07-22T09:21:10;27.80;83.90
31379;DHT22;61664;48.112;11.662;2023-07-22T09:23:38;28.20;79.90
31379;DHT22;61664;48.112;11.662;2023-07-22T09:26:13;28.50;77.00
31379;DHT22;61664;48.112;11.662;2023-07-22T09:28:55;28.80;67.80
31379;DHT22;61664;48.112;11.662;2023-07-22T09:31:27;29.20;63.30
31379;DHT22;61664;48.112;11.662;2023-07-22T09:34:09;29.50;68.70
31379;DHT22;61664;48.112;11.662;2023-07-22T09:36:53;29.80;61.90
31379;DHT22;61664;48.112;11.662;2023-07-22T09:39:22;30.00;61.80
31379;DHT22;61664;48.112;11.662;2023-07-22T09:41:50;30.30;65.30
31379;DHT22;61664;48.112;11.662;2023-07-22T09:44:19;30.50;64.40
31379;DHT22;61664;48.112;11.662;2023-07-22T09:46:47;30.80;64.20
31379;DHT22;61664;48.112;11.662;2023-07-22T09:49:18;30.90;63.40
31379;DHT22;61664;48.112;11.662;2023-07-22T09:51:45;31.20;62.60
31379;DHT22;61664;48.112;11.662;2023-07-22T09:54:28;31.50;61.50
31379;DHT22;61664;48.112;11.662;2023-07-22T09:56:58;31.80;60.30
31379;DHT22;61664;48.112;11.662;2023-07-22T09:59:28;32.00;58.30
31379;DHT22;61664;48.112;11.662;2023-07-22T10:01:56;32.10;56.70
31379;DHT22;61664;48.112;11.662;2023-07-22T10:04:33;32.20;57.60
31379;DHT22;61664;48.112;11.662;2023-07-22T10:07:01;32.30;55.60
31379;DHT22;61664;48.112;11.662;2023-07-22T10:09:30;32.50;57.40
31379;DHT22;61664;48.112;11.662;2023-07-22T10:11:58;32.60;56.60
31379;DHT22;61664;48.112;11.662;2023-07-22T10:14:26;32.90;56.30
31379;DHT22;61664;48.112;11.662;2023-07-22T10:16:58;33.00;53.40
31379;DHT22;61664;48.112;11.662;2023-07-22T10:19:26;33.10;53.20
31379;DHT22;61664;48.112;11.662;2023-07-22T10:21:53;33.20;53.50
31379;DHT22;61664;48.112;11.662;2023-07-22T10:24:21;33.20;53.30
31379;DHT22;61664;48.112;11.662;2023-07-22T10:26:48;33.40;53.20
31379;DHT22;61664;48.112;11.662;2023-07-22T10:29:18;33.60;52.80
31379;DHT22;61664;48.112;11.662;2023-07-22T10:31:47;33.70;52.60
31379;DHT22;61664;48.112;11.662;2023-07-22T10:34:23;33.80;51.90
31379;DHT22;61664;48.112;11.662;2023-07-22T10:36:50;33.80;49.50
31379;DHT22;61664;48.112;11.662;2023-07-22T10:39:28;33.90;51.30
31379;DHT22;61664;48.112;11.662;2023-07-22T10:42:05;33.80;46.80
31379;DHT22;61664;48.112;11.662;2023-07-22T10:44:35;33.60;45.60
31379;DHT22;61664;48.112;11.662;2023-07-22T10:47:04;33.30;48.80
31379;DHT22;61664;48.112;11.662;2023-07-22T10:50:07;33.00;49.10
31379;DHT22;61664;48.112;11.662;2023-07-22T10:52:45;32.70;49.90
31379;DHT22;61664;48.112;11.662;2023-07-22T10:55:17;32.40;46.00
31379;DHT22;61664;48.112;11.662;2023-07-22T10:57:51;32.10;48.40
31379;DHT22;61664;48.112;11.662;2023-07-22T11:00:20;31.90;47.90
31379;DHT22;61664;48.112;11.662;2023-07-22T11:03:11;31.60;48.50
31379;DHT22;61664;48.112;11.662;2023-07-22T11:08:17;31.00;48.00
31379;DHT22;61664;48.112;11.662;2023-07-22T11:11:03;30.80;49.30
31379;DHT22;61664;48.112;11.662;2023-07-22T11:13:37;30.70;51.20
31379;DHT22;61664;48.112;11.662;2023-07-22T11:16:10;30.80;47.80
31379;DHT22;61664;48.112;11.662;2023-07-22T11:18:39;30.80;48.30
31379;DHT22;61664;48.112;11.662;2023-07-22T11:21:11;30.90;50.10
31379;DHT22;61664;48.112;11.662;2023-07-22T11:23:39;30.80;47.20
31379;DHT22;61664;48.112;11.662;2023-07-22T11:26:06;30.90;50.50
31379;DHT22;61664;48.112;11.662;2023-07-22T11:28:32;30.90;49.90
31379;DHT22;61664;48.112;11.662;2023-07-22T11:31:00;31.00;49.40
31379;DHT22;61664;48.112;11.662;2023-07-22T11:33:38;30.90;48.20
31379;DHT22;61664;48.112;11.662;2023-07-22T11:36:06;30.70;47.00
31379;DHT22;61664;48.112;11.662;2023-07-22T11:38:33;30.50;49.10
31379;DHT22;61664;48.112;11.662;2023-07-22T11:41:01;30.30;49.50
31379;DHT22;61664;48.112;11.662;2023-07-22T11:43:28;30.10;49.20
31379;DHT22;61664;48.112;11.662;2023-07-22T11:45:55;29.90;48.90
31379;DHT22;61664;48.112;11.662;2023-07-22T11:48:23;29.80;48.50
31379;DHT22;61664;48.112;11.662;2023-07-22T11:50:50;29.50;47.10
31379;DHT22;61664;48.112;11.662;2023-07-22T11:53:17;29.30;46.90
31379;DHT22;61664;48.112;11.662;2023-07-22T11:55:44;29.10;47.10
31379;DHT22;61664;48.112;11.662;2023-07-22T11:58:11;28.90;47.80
31379;DHT22;61664;48.112;11.662;2023-07-22T12:00:42;28.70;47.90
31379;DHT22;61664;48.112;11.662;2023-07-22T12:03:33;28.50;47.00
31379;DHT22;61664;48.112;11.662;2023-07-22T12:06:05;28.40;47.10
31379;DHT22;61664;48.112;11.662;2023-07-22T12:08:33;28.30;48.90
31379;DHT22;61664;48.112;11.662;2023-07-22T12:11:00;28.30;50.40
31379;DHT22;61664;48.112;11.662;2023-07-22T12:13:27;28.20;49.20
31379;DHT22;61664;48.112;11.662;2023-07-22T12:16:02;28.10;49.70
31379;DHT22;61664;48.112;11.662;2023-07-22T12:18:44;28.10;47.40
31379;DHT22;61664;48.112;11.662;2023-07-22T12:21:13;28.10;47.80
31379;DHT22;61664;48.112;11.662;2023-07-22T12:23:41;28.30;51.70
31379;DHT22;61664;48.112;11.662;2023-07-22T12:26:09;28.30;51.40
31379;DHT22;61664;48.112;11.662;2023-07-22T12:28:36;28.40;51.60
31379;DHT22;61664;48.112;11.662;2023-07-22T12:31:03;28.50;51.10
31379;DHT22;61664;48.112;11.662;2023-07-22T12:33:30;28.50;50.80
31379;DHT22;61664;48.112;11.662;2023-07-22T12:35:57;28.50;50.40
31379;DHT22;61664;48.112;11.662;2023-07-22T12:38:24;28.50;50.40
31379;DHT22;61664;48.112;11.662;2023-07-22T12:40:51;28.50;50.70
31379;DHT22;61664;48.112;11.662;2023-07-22T12:43:18;28.50;50.10
31379;DHT22;61664;48.112;11.662;2023-07-22T12:45:45;28.50;50.20
31379;DHT22;61664;48.112;11.662;2023-07-22T12:48:12;28.50;50.50
31379;DHT22;61664;48.112;11.662;2023-07-22T12:50:39;28.60;51.00
31379;DHT22;61664;48.112;11.662;2023-07-22T12:53:06;28.60;50.80
31379;DHT22;61664;48.112;11.662;2023-07-22T12:55:33;28.70;50.90
31379;DHT22;61664;48.112;11.662;2023-07-22T12:58:00;28.70;50.60
31379;DHT22;61664;48.112;11.662;2023-07-22T13:00:28;28.80;50.10
31379;DHT22;61664;48.112;11.662;2023-07-22T13:02:58;28.80;49.50
31379;DHT22;61664;48.112;11.662;2023-07-22T13:05:25;28.90;49.60
31379;DHT22;61664;48.112;11.662;2023-07-22T13:07:52;28.90;49.60
31379;DHT22;61664;48.112;11.662;2023-07-22T13:10:19;28.90;50.50
31379;DHT22;61664;48.112;11.662;2023-07-22T13:12:46;29.00;50.60
31379;DHT22;61664;48.112;11.662;2023-07-22T13:15:13;29.00;49.20
31379;DHT22;61664;48.112;11.662;2023-07-22T13:17:40;29.10;50.10
31379;DHT22;61664;48.112;11.662;2023-07-22T13:20:07;29.10;50.20
31379;DHT22;61664;48.112;11.662;2023-07-22T13:22:36;29.20;50.40
31379;DHT22;61664;48.112;11.662;2023-07-22T13:25:03;29.30;49.90
31379;DHT22;61664;48.112;11.662;2023-07-22T13:27:30;29.30;49.30
31379;DHT22;61664;48.112;11.662;2023-07-22T13:29:57;29.30;49.40
31379;DHT22;61664;48.112;11.662;2023-07-22T13:32:24;29.40;48.90
31379;DHT22;61664;48.112;11.662;2023-07-22T13:34:52;29.30;48.90
31379;DHT22;61664;48.112;11.662;2023-07-22T13:37:19;29.30;48.90
31379;DHT22;61664;48.112;11.662;2023-07-22T13:39:46;29.30;49.80
31379;DHT22;61664;48.112;11.662;2023-07-22T13:42:13;29.40;50.00
31379;DHT22;61664;48.112;11.662;2023-07-22T13:44:40;29.70;51.00
31379;DHT22;61664;48.112;11.662;2023-07-22T13:47:07;30.00;51.20
31379;DHT22;61664;48.112;11.662;2023-07-22T13:49:34;30.40;52.00
31379;DHT22;61664;48.112;11.662;2023-07-22T13:52:01;30.80;48.40
31379;DHT22;61664;48.112;11.662;2023-07-22T13:54:28;31.10;49.90
31379;DHT22;61664;48.112;11.662;2023-07-22T13:56:55;31.40;49.00
31379;DHT22;61664;48.112;11.662;2023-07-22T13:59:21;31.60;46.60
31379;DHT22;61664;48.112;11.662;2023-07-22T14:01:48;31.90;48.70
31379;DHT22;61664;48.112;11.662;2023-07-22T14:04:15;32.30;50.30
31379;DHT22;61664;48.112;11.662;2023-07-22T14:06:42;32.60;50.10
31379;DHT22;61664;48.112;11.662;2023-07-22T14:09:09;32.90;48.50
31379;DHT22;61664;48.112;11.662;2023-07-22T14:11:36;33.10;46.10
31379;DHT22;61664;48.112;11.662;2023-07-22T14:14:03;33.00;45.60
31379;DHT22;61664;48.112;11.662;2023-07-22T14:16:30;32.90;44.10
31379;DHT22;61664;48.112;11.662;2023-07-22T14:18:56;32.70;43.90
31379;DHT22;61664;48.112;11.662;2023-07-22T14:21:23;32.60;45.20
31379;DHT22;61664;48.112;11.662;2023-07-22T14:23:51;32.60;46.90
31379;DHT22;61664;48.112;11.662;2023-07-22T14:26:18;32.80;48.60
31379;DHT22;61664;48.112;11.662;2023-07-22T14:28:47;33.20;47.80
31379;DHT22;61664;48.112;11.662;2023-07-22T14:31:13;33.40;46.80
31379;DHT22;61664;48.112;11.662;2023-07-22T14:33:40;33.50;45.80
31379;DHT22;61664;48.112;11.662;2023-07-22T14:36:07;33.70;46.40
31379;DHT22;61664;48.112;11.662;2023-07-22T14:38:34;33.90;46.30
31379;DHT22;61664;48.112;11.662;2023-07-22T14:41:01;34.30;47.80
31379;DHT22;61664;48.112;11.662;2023-07-22T14:43:29;34.50;44.70
31379;DHT22;61664;48.112;11.662;2023-07-22T14:45:56;34.60;43.90
31379;DHT22;61664;48.112;11.662;2023-07-22T14:48:23;34.50;42.00
31379;DHT22;61664;48.112;11.662;2023-07-22T14:50:50;34.50;41.60
31379;DHT22;61664;48.112;11.662;2023-07-22T14:53:18;34.30;41.60
31379;DHT22;61664;48.112;11.662;2023-07-22T14:55:45;34.00;41.30
31379;DHT22;61664;48.112;11.662;2023-07-22T14:58:12;33.80;40.30
31379;DHT22;61664;48.112;11.662;2023-07-22T15:00:39;33.70;42.80
31379;DHT22;61664;48.112;11.662;2023-07-22T15:03:06;33.80;44.60
31379;DHT22;61664;48.112;11.662;2023-07-22T15:05:34;34.10;45.40
31379;DHT22;61664;48.112;11.662;2023-07-22T15:08:01;34.40;44.50
31379;DHT22;61664;48.112;11.662;2023-07-22T15:10:28;34.50;41.70
31379;DHT22;61664;48.112;11.662;2023-07-22T15:12:56;34.40;40.60
31379;DHT22;61664;48.112;11.662;2023-07-22T15:15:23;34.30;42.20
31379;DHT22;61664;48.112;11.662;2023-07-22T15:17:50;34.20;42.30
31379;DHT22;61664;48.112;11.662;2023-07-22T15:20:17;34.40;44.00
31379;DHT22;61664;48.112;11.662;2023-07-22T15:22:44;34.70;45.00
31379;DHT22;61664;48.112;11.662;2023-07-22T15:25:11;35.10;45.80
31379;DHT22;61664;48.112;11.662;2023-07-22T15:27:38;35.50;46.10